Time;durP1;ratioP1;P1;durP2;ratioP2;P2;SDS_P1;SDS_P2;PMS_P1;PMS_P2;Temp;Humidity;BMP_temperature;BMP_pressure;BME280_temperature;BME280_humidity;BME280_pressure;Samples;Min_cycle;Max_cycle;Signal;HPM_P1;HPM_P2
2023/03/30 00:01:21;;;;;;;5.25;2.30;;;;;;;;;;4921962;29;20059;-68
2023/03/30 00:04:05;;;;;;;8.25;2.70;;;;;;;;;;4890512;28;20062;-68
2023/03/30 00:06:38;;;;;;;7.57;2.70;;;;;;;;;;4925247;28;20079;-67
2023/03/30 00:09:05;;;;;;;8.63;2.83;;;;;;;;;;4928901;28;20084;-65
2023/03/30 00:11:33;;;;;;;8.57;2.90;;;;;;;;;;4923253;29;20083;-67
2023/03/30 00:13:59;;;;;;;6.13;2.33;;;;;;;;;;4894701;29;20052;-67
2023/03/30 00:16:26;;;;;;;5.90;2.53;;;;;;;;;;4914560;29;20059;-67
2023/03/30 00:18:52;;;;;;;5.35;2.55;;;;;;;;;;4927068;28;20143;-67
2023/03/30 00:21:19;;;;;;;6.63;2.90;;;;;;;;;;4923429;28;20091;-68
2023/03/30 00:23:46;;;;;;;6.53;2.60;;;;;;;;;;4928540;28;20051;-67
2023/03/30 00:26:13;;;;;;;9.23;2.33;;;;;;;;;;4904029;28;20056;-67
2023/03/30 00:28:41;;;;;;;6.50;2.60;;;;;;;;;;4938272;28;20106;-65
2023/03/30 00:31:09;;;;;;;5.60;2.67;;;;;;;;;;4920989;29;20142;-68
2023/03/30 00:33:36;;;;;;;5.97;2.40;;;;;;;;;;4938245;29;20303;-65
2023/03/30 00:36:02;;;;;;;5.22;2.30;;;;;;;;;;4922873;28;20060;-67
2023/03/30 00:38:29;;;;;;;5.70;2.65;;;;;;;;;;4905735;28;20064;-67
2023/03/30 00:40:56;;;;;;;6.50;2.13;;;;;;;;;;4905523;29;20146;-68
2023/03/30 00:43:23;;;;;;;7.43;2.47;;;;;;;;;;4937143;29;20099;-65
2023/03/30 00:45:52;;;;;;;6.70;2.35;;;;;;;;;;4929834;28;20062;-66
2023/03/30 00:48:20;;;;;;;7.40;2.50;;;;;;;;;;4898853;29;20071;-68
2023/03/30 00:50:49;;;;;;;6.80;2.70;;;;;;;;;;4906763;29;20055;-66
2023/03/30 00:53:16;;;;;;;;;;;;;;;;;;4923616;28;20059;-66
2023/03/30 00:55:43;;;;;;;7.85;2.42;;;;;;;;;;4919211;28;19923;-66
2023/03/30 00:58:11;;;;;;;4.32;2.03;;;;;;;;;;4913971;29;20065;-66
2023/03/30 01:00:38;;;;;;;6.32;2.15;;;;;;;;;;4921942;29;20055;-65
2023/03/30 01:03:14;;;;;;;5.95;2.05;;;;;;;;;;4923062;29;20051;-64
2023/03/30 01:05:43;;;;;;;6.97;2.45;;;;;;;;;;4885328;29;20083;-68
2023/03/30 01:08:12;;;;;;;5.43;2.17;;;;;;;;;;4906577;29;20118;-67
2023/03/30 01:10:39;;;;;;;5.07;2.00;;;;;;;;;;4906600;29;20055;-65
2023/03/30 01:13:06;;;;;;;5.55;2.33;;;;;;;;;;4925930;28;20058;-66
2023/03/30 01:15:34;;;;;;;5.00;2.28;;;;;;;;;;4897305;29;20051;-66
2023/03/30 01:18:07;;;;;;;5.53;2.58;;;;;;;;;;4914779;28;20062;-68
2023/03/30 01:20:55;;;;;;;4.85;2.08;;;;;;;;;;4924480;29;20051;-67
2023/03/30 01:23:34;;;;;;;4.97;2.10;;;;;;;;;;4913136;29;20074;-65
2023/03/30 01:26:17;;;;;;;4.28;1.95;;;;;;;;;;4913816;29;20062;-66
2023/03/30 01:28:48;;;;;;;3.92;1.75;;;;;;;;;;4922339;29;20066;-66
2023/03/30 01:31:26;;;;;;;5.75;2.50;;;;;;;;;;4954486;28;20117;-65
2023/03/30 01:34:07;;;;;;;7.07;2.28;;;;;;;;;;4927732;28;20189;-63
2023/03/30 01:36:45;;;;;;;6.93;2.25;;;;;;;;;;4902983;28;20060;-67
2023/03/30 01:39:16;;;;;;;4.70;1.98;;;;;;;;;;4920530;28;20063;-67
2023/03/30 01:41:50;;;;;;;6.43;2.20;;;;;;;;;;4917530;29;20063;-66
2023/03/30 01:44:20;;;;;;;9.50;2.00;;;;;;;;;;4916380;29;20097;-69
2023/03/30 01:46:47;;;;;;;5.90;2.22;;;;;;;;;;4920195;29;20055;-64
2023/03/30 01:49:17;;;;;;;5.50;2.10;;;;;;;;;;4912453;29;20059;-68
2023/03/30 01:51:47;;;;;;;5.07;2.03;;;;;;;;;;4921492;29;20052;-64
2023/03/30 01:54:17;;;;;;;8.23;2.00;;;;;;;;;;4911854;29;20063;-67
2023/03/30 01:56:51;;;;;;;7.05;2.22;;;;;;;;;;4912894;29;20193;-67
2023/03/30 01:59:20;;;;;;;8.07;2.00;;;;;;;;;;4935771;28;20139;-64
2023/03/30 02:01:49;;;;;;;6.85;2.10;;;;;;;;;;4916601;29;20052;-64
2023/03/30 02:04:17;;;;;;;8.60;2.00;;;;;;;;;;4880081;29;20059;-65
2023/03/30 02:06:46;;;;;;;5.93;1.98;;;;;;;;;;4929088;29;20059;-65
2023/03/30 02:09:14;;;;;;;4.55;1.90;;;;;;;;;;4931506;28;21597;-67
2023/03/30 02:11:43;;;;;;;4.43;1.98;;;;;;;;;;4916548;29;20058;-67
2023/03/30 02:14:12;;;;;;;5.68;1.85;;;;;;;;;;4931905;28;20065;-67
2023/03/30 02:16:41;;;;;;;4.30;1.73;;;;;;;;;;4939195;28;20061;-65
2023/03/30 02:19:08;;;;;;;5.03;2.00;;;;;;;;;;4935704;28;20142;-64
2023/03/30 02:21:34;;;;;;;5.88;2.30;;;;;;;;;;4924202;29;20085;-65
2023/03/30 02:24:02;;;;;;;5.88;1.98;;;;;;;;;;4918726;29;20062;-67
2023/03/30 02:26:29;;;;;;;4.22;1.95;;;;;;;;;;4940490;29;20106;-65
2023/03/30 02:28:56;;;;;;;6.03;2.10;;;;;;;;;;4937699;28;20054;-67
2023/03/30 02:31:23;;;;;;;5.97;2.20;;;;;;;;;;4925486;29;20055;-67
2023/03/30 02:34:01;;;;;;;4.97;2.03;;;;;;;;;;4921961;29;20062;-66
2023/03/30 02:36:36;;;;;;;5.60;1.90;;;;;;;;;;4943715;28;20055;-65
2023/03/30 02:39:09;;;;;;;5.65;2.05;;;;;;;;;;4907199;29;20055;-66
2023/03/30 02:41:45;;;;;;;6.32;2.03;;;;;;;;;;4921507;29;20055;-66
2023/03/30 02:44:17;;;;;;;4.68;1.88;;;;;;;;;;4922294;29;20063;-68
2023/03/30 02:46:56;;;;;;;3.58;1.63;;;;;;;;;;4921806;29;20125;-68
2023/03/30 02:49:25;;;;;;;5.13;2.15;;;;;;;;;;4924379;29;20079;-66
2023/03/30 02:51:51;;;;;;;;;;;;;;;;;;4921866;29;20059;-68
2023/03/30 02:54:29;;;;;;;5.40;1.80;;;;;;;;;;4939053;29;19999;-68
2023/03/30 02:56:56;;;;;;;;;;;;;;;;;;4915706;28;20055;-66
2023/03/30 02:59:26;;;;;;;3.78;1.58;;;;;;;;;;4941134;28;19962;-66
2023/03/30 03:01:56;;;;;;;5.72;2.00;;;;;;;;;;4915286;29;20059;-65
2023/03/30 03:04:24;;;;;;;3.33;1.80;;;;;;;;;;4909089;28;20058;-65
2023/03/30 03:06:52;;;;;;;4.93;1.95;;;;;;;;;;4876793;29;20056;-67
2023/03/30 03:09:19;;;;;;;;;;;;;;;;;;4901388;29;20060;-68
2023/03/30 03:11:46;;;;;;;4.72;1.80;;;;;;;;;;4914154;29;20021;-64
2023/03/30 03:14:12;;;;;;;3.65;1.65;;;;;;;;;;4916248;29;20058;-65
2023/03/30 03:16:39;;;;;;;6.93;2.13;;;;;;;;;;4899960;29;20123;-66
2023/03/30 03:19:06;;;;;;;3.42;1.67;;;;;;;;;;4891535;29;20147;-66
2023/03/30 03:21:33;;;;;;;3.75;1.23;;;;;;;;;;4885878;29;20064;-67
2023/03/30 03:23:59;;;;;;;3.65;1.40;;;;;;;;;;4899511;29;20060;-68
2023/03/30 03:26:27;;;;;;;3.42;1.50;;;;;;;;;;4898541;29;20056;-64
2023/03/30 03:28:53;;;;;;;5.38;1.60;;;;;;;;;;4902650;29;20083;-67
2023/03/30 03:31:20;;;;;;;5.18;1.60;;;;;;;;;;4917967;29;20079;-66
2023/03/30 03:33:47;;;;;;;4.20;1.40;;;;;;;;;;4882531;29;20061;-67
2023/03/30 03:36:15;;;;;;;4.53;1.70;;;;;;;;;;4874282;29;20053;-66
2023/03/30 03:38:41;;;;;;;4.38;1.50;;;;;;;;;;4912775;29;20052;-67
2023/03/30 03:41:08;;;;;;;3.72;1.15;;;;;;;;;;4880518;29;20052;-67
2023/03/30 03:43:35;;;;;;;4.97;1.67;;;;;;;;;;4898299;29;20174;-68
2023/03/30 03:46:01;;;;;;;4.43;1.50;;;;;;;;;;4897996;29;20119;-65
2023/03/30 03:48:28;;;;;;;2.78;1.15;;;;;;;;;;4903433;29;20146;-66
2023/03/30 03:50:55;;;;;;;5.45;1.38;;;;;;;;;;4893653;29;20056;-66
2023/03/30 03:53:24;;;;;;;3.40;1.17;;;;;;;;;;4884874;29;20071;-67
2023/03/30 03:55:51;;;;;;;4.07;1.20;;;;;;;;;;4889356;29;20104;-66
2023/03/30 03:58:17;;;;;;;2.50;1.00;;;;;;;;;;4900422;29;20133;-66
2023/03/30 04:00:44;;;;;;;4.20;1.27;;;;;;;;;;4906601;29;20075;-67
2023/03/30 04:03:11;;;;;;;7.97;1.50;;;;;;;;;;4896101;29;20114;-68
2023/03/30 04:05:38;;;;;;;6.40;1.40;;;;;;;;;;4900872;29;20067;-66
2023/03/30 04:08:04;;;;;;;6.10;1.15;;;;;;;;;;4903209;29;20119;-67
2023/03/30 04:10:32;;;;;;;2.28;1.10;;;;;;;;;;4904093;29;20060;-66
2023/03/30 04:12:59;;;;;;;6.20;1.17;;;;;;;;;;4893314;29;20056;-67
2023/03/30 04:15:26;;;;;;;1.52;0.93;;;;;;;;;;4895920;29;20124;-68
2023/03/30 04:17:56;;;;;;;2.88;1.23;;;;;;;;;;4920566;29;20056;-66
2023/03/30 04:20:23;;;;;;;1.75;0.90;;;;;;;;;;4901125;29;20213;-66
2023/03/30 04:22:52;;;;;;;2.65;1.02;;;;;;;;;;4907038;29;20060;-67
2023/03/30 04:25:20;;;;;;;;;;;;;;;;;;4891622;29;20083;-65
2023/03/30 04:27:49;;;;;;;2.53;1.00;;;;;;;;;;4877006;29;19999;-66
2023/03/30 04:30:16;;;;;;;2.83;1.08;;;;;;;;;;4919008;29;20068;-65
2023/03/30 04:32:43;;;;;;;3.58;1.20;;;;;;;;;;4904384;29;20056;-67
2023/03/30 04:35:10;;;;;;;2.85;1.00;;;;;;;;;;4886208;29;20068;-66
2023/03/30 04:37:41;;;;;;;3.92;1.10;;;;;;;;;;4904395;29;20167;-66
2023/03/30 04:40:09;;;;;;;4.38;1.40;;;;;;;;;;4902234;29;20107;-66
2023/03/30 04:42:36;;;;;;;3.10;1.07;;;;;;;;;;4905556;29;20063;-66
2023/03/30 04:45:05;;;;;;;1.45;0.85;;;;;;;;;;4873622;29;20939;-64
2023/03/30 04:47:32;;;;;;;1.98;0.98;;;;;;;;;;4920385;29;20052;-65
2023/03/30 04:49:59;;;;;;;3.03;1.08;;;;;;;;;;4906631;29;20079;-67
2023/03/30 04:52:26;;;;;;;3.53;1.13;;;;;;;;;;4905666;29;20051;-67
2023/03/30 04:54:54;;;;;;;1.25;0.85;;;;;;;;;;4896699;29;20056;-67
2023/03/30 04:57:20;;;;;;;4.00;1.10;;;;;;;;;;4892694;29;20071;-67
2023/03/30 04:59:47;;;;;;;3.22;0.95;;;;;;;;;;4899143;29;20212;-67
2023/03/30 05:02:17;;;;;;;2.08;1.02;;;;;;;;;;4899468;29;20060;-67
2023/03/30 05:04:44;;;;;;;3.70;1.30;;;;;;;;;;4924377;28;20064;-67
2023/03/30 05:07:10;;;;;;;2.90;1.30;;;;;;;;;;4911085;29;21337;-66
2023/03/30 05:09:37;;;;;;;4.28;1.10;;;;;;;;;;4905574;29;20055;-65
2023/03/30 05:12:03;;;;;;;3.50;1.20;;;;;;;;;;4918934;29;20052;-65
2023/03/30 05:14:30;;;;;;;5.30;1.15;;;;;;;;;;4916996;29;20059;-69
2023/03/30 05:16:59;;;;;;;4.68;1.20;;;;;;;;;;4896631;29;20055;-66
2023/03/30 05:19:30;;;;;;;5.03;1.50;;;;;;;;;;4919737;29;20066;-66
2023/03/30 05:21:56;;;;;;;4.45;1.20;;;;;;;;;;4927894;28;20059;-67
2023/03/30 05:24:22;;;;;;;3.08;1.25;;;;;;;;;;4920158;29;20063;-69
2023/03/30 05:26:49;;;;;;;7.90;1.52;;;;;;;;;;4906530;29;20056;-68
2023/03/30 05:29:16;;;;;;;7.70;1.80;;;;;;;;;;4908456;29;20067;-66
2023/03/30 05:31:43;;;;;;;4.38;1.40;;;;;;;;;;4918197;29;20146;-65
2023/03/30 05:34:10;;;;;;;2.85;1.33;;;;;;;;;;4906156;29;20086;-69
2023/03/30 05:36:40;;;;;;;5.60;1.50;;;;;;;;;;4916706;29;20155;-67
2023/03/30 05:39:07;;;;;;;3.50;1.25;;;;;;;;;;4910833;28;20146;-67
2023/03/30 05:41:34;;;;;;;4.20;1.52;;;;;;;;;;4934759;28;20135;-67
2023/03/30 05:44:00;;;;;;;7.30;1.48;;;;;;;;;;4912674;29;20047;-68
2023/03/30 05:46:27;;;;;;;1.98;1.13;;;;;;;;;;4926047;28;20126;-65
2023/03/30 05:48:56;;;;;;;6.05;1.58;;;;;;;;;;4915150;29;20078;-68
2023/03/30 05:51:25;;;;;;;4.75;1.42;;;;;;;;;;4914243;28;20062;-67
2023/03/30 05:53:57;;;;;;;6.00;1.67;;;;;;;;;;4909125;28;20102;-67
2023/03/30 05:56:24;;;;;;;7.72;1.63;;;;;;;;;;4919323;28;20047;-67
2023/03/30 05:58:50;;;;;;;4.57;1.48;;;;;;;;;;4930399;28;20064;-68
2023/03/30 06:01:20;;;;;;;4.65;1.50;;;;;;;;;;4905829;28;20064;-65
2023/03/30 06:03:46;;;;;;;6.32;1.50;;;;;;;;;;4895404;29;20091;-68
2023/03/30 06:06:13;;;;;;;8.98;1.33;;;;;;;;;;4898409;28;20146;-66
2023/03/30 06:08:41;;;;;;;4.75;1.50;;;;;;;;;;4898901;29;20106;-67
2023/03/30 06:11:11;;;;;;;4.57;1.30;;;;;;;;;;4910680;29;20151;-68
2023/03/30 06:13:37;;;;;;;4.28;1.50;;;;;;;;;;4871418;29;20150;-67
2023/03/30 06:16:07;;;;;;;5.20;1.83;;;;;;;;;;4895910;29;20060;-67
2023/03/30 06:18:34;;;;;;;7.40;1.70;;;;;;;;;;4893037;29;20059;-67
2023/03/30 06:21:05;;;;;;;7.95;1.83;;;;;;;;;;4917551;29;20055;-64
2023/03/30 06:23:32;;;;;;;7.22;1.55;;;;;;;;;;4892358;29;20063;-66
2023/03/30 06:26:00;;;;;;;13.23;1.75;;;;;;;;;;4886655;29;20060;-67
2023/03/30 06:28:27;;;;;;;5.22;1.55;;;;;;;;;;4875488;29;20086;-67
2023/03/30 06:30:54;;;;;;;3.65;1.40;;;;;;;;;;4896650;29;20079;-69
2023/03/30 06:33:24;;;;;;;6.30;1.70;;;;;;;;;;4907022;29;20111;-65
2023/03/30 06:35:53;;;;;;;4.88;1.70;;;;;;;;;;4870073;29;20048;-65
2023/03/30 06:38:20;;;;;;;6.47;1.55;;;;;;;;;;4906265;29;20040;-67
2023/03/30 06:40:48;;;;;;;8.18;1.52;;;;;;;;;;4888568;29;20068;-66
2023/03/30 06:43:17;;;;;;;9.25;1.75;;;;;;;;;;4912249;29;20151;-67
2023/03/30 06:45:50;;;;;;;5.05;1.40;;;;;;;;;;4885522;29;20072;-66
2023/03/30 06:48:23;;;;;;;4.65;1.10;;;;;;;;;;4904020;29;20060;-68
2023/03/30 06:50:56;;;;;;;6.85;1.48;;;;;;;;;;4889779;29;20157;-67
2023/03/30 06:53:53;;;;;;;5.57;1.70;;;;;;;;;;4885429;29;20459;-66
2023/03/30 06:56:25;;;;;;;8.25;1.55;;;;;;;;;;4850782;29;20064;-66
2023/03/30 07:17:20;;;;;;;4.43;1.40;;;;;;;;;;5572219;22;15088391;-66
2023/03/30 07:23:10;;;;;;;8.82;1.88;;;;;;;;;;6074911;23;20069;-67
2023/03/30 07:46:50;;;;;;;6.80;1.40;;;;;;;;;;5049567;28;20463;-68
2023/03/30 07:49:16;;;;;;;8.82;1.55;;;;;;;;;;5072867;28;20075;-68
2023/03/30 07:51:43;;;;;;;9.75;2.05;;;;;;;;;;5031727;28;20124;-68
2023/03/30 07:54:12;;;;;;;6.53;1.80;;;;;;;;;;5065195;28;20113;-68
2023/03/30 07:56:41;;;;;;;14.38;1.83;;;;;;;;;;4998270;28;20174;-67
2023/03/30 07:59:08;;;;;;;5.13;1.52;;;;;;;;;;5082864;28;20039;-67
2023/03/30 08:01:35;;;;;;;7.50;1.48;;;;;;;;;;5087321;27;20078;-67
2023/03/30 08:04:06;;;;;;;10.05;1.92;;;;;;;;;;5097166;28;20083;-68
2023/03/30 08:06:36;;;;;;;6.60;1.60;;;;;;;;;;5082659;27;20051;-67
2023/03/30 08:09:03;;;;;;;13.25;1.52;;;;;;;;;;5076484;27;20122;-68
2023/03/30 08:11:30;;;;;;;11.38;1.60;;;;;;;;;;5086340;27;20100;-69
2023/03/30 08:13:56;;;;;;;15.05;2.10;;;;;;;;;;5090426;27;20055;-68
2023/03/30 08:16:23;;;;;;;9.88;1.55;;;;;;;;;;5046490;27;20166;-67
2023/03/30 08:18:53;;;;;;;12.02;2.00;;;;;;;;;;5067307;28;20073;-65
2023/03/30 08:21:25;;;;;;;10.93;1.60;;;;;;;;;;5069527;27;20055;-67
2023/03/30 08:23:51;;;;;;;11.07;1.67;;;;;;;;;;5079187;28;20055;-67
2023/03/30 08:26:18;;;;;;;8.00;1.73;;;;;;;;;;5054556;27;20139;-68
2023/03/30 08:28:47;;;;;;;14.38;1.90;;;;;;;;;;5104903;27;20054;-67
2023/03/30 08:31:16;;;;;;;10.60;1.80;;;;;;;;;;5098429;27;20192;-67
2023/03/30 08:33:43;;;;;;;8.52;1.63;;;;;;;;;;5099534;27;20097;-67
2023/03/30 08:36:10;;;;;;;10.70;1.88;;;;;;;;;;5072062;28;20082;-67
2023/03/30 08:38:50;;;;;;;14.82;2.03;;;;;;;;;;5074566;27;20146;-69
2023/03/30 08:41:30;;;;;;;13.43;2.30;;;;;;;;;;5111354;27;20056;-69
2023/03/30 08:43:57;;;;;;;9.95;1.75;;;;;;;;;;5094850;28;20099;-67
2023/03/30 08:46:24;;;;;;;11.43;1.60;;;;;;;;;;5051124;28;20108;-68
2023/03/30 08:48:52;;;;;;;13.00;2.25;;;;;;;;;;4995941;27;20060;-66
2023/03/30 08:51:21;;;;;;;9.23;1.73;;;;;;;;;;4972421;28;20156;-66
2023/03/30 08:53:50;;;;;;;10.00;1.90;;;;;;;;;;5018057;28;20057;-67
2023/03/30 08:56:19;;;;;;;11.90;1.75;;;;;;;;;;4986280;28;20089;-67
2023/03/30 08:58:47;;;;;;;;;;;;;;;;;;5015766;28;20048;-68
2023/03/30 09:01:20;;;;;;;9.80;1.73;;;;;;;;;;5086230;27;20822;-66
2023/03/30 09:03:59;;;;;;;17.33;2.90;;;;;;;;;;5079474;28;20055;-67
2023/03/30 09:06:31;;;;;;;10.07;1.90;;;;;;;;;;4976693;27;20055;-69
2023/03/30 09:09:18;;;;;;;14.15;2.25;;;;;;;;;;4954244;28;20168;-67
2023/03/30 09:11:57;;;;;;;9.32;1.80;;;;;;;;;;4982213;28;20057;-66
2023/03/30 09:14:37;;;;;;;5.28;1.50;;;;;;;;;;4953265;28;20062;-66
2023/03/30 09:19:36;;;;;;;11.77;1.98;;;;;;;;;;4906199;28;20055;-69
2023/03/30 09:22:06;;;;;;;11.02;1.63;;;;;;;;;;4935457;28;20225;-66
2023/03/30 09:24:36;;;;;;;6.38;1.98;;;;;;;;;;4923258;28;20058;-67
2023/03/30 09:27:17;;;;;;;;;;;;;;;;;;;;;
2023/03/30 09:30:15;;;;;;;;;;;;;;;;;;;;;
2023/03/30 09:32:57;;;;;;;12.57;2.05;;;;;;;;;;4926867;28;20118;-68
2023/03/30 09:35:33;;;;;;;10.93;2.35;;;;;;;;;;4965551;28;20049;-68
2023/03/30 09:38:04;;;;;;;7.10;1.85;;;;;;;;;;5027507;28;20141;-68
2023/03/30 09:40:44;;;;;;;19.17;3.20;;;;;;;;;;4990221;28;20137;-66
2023/03/30 09:43:19;;;;;;;10.73;2.22;;;;;;;;;;4972471;28;20077;-68
2023/03/30 09:45:51;;;;;;;11.88;2.03;;;;;;;;;;4936119;28;20135;-65
2023/03/30 09:48:20;;;;;;;9.73;1.63;;;;;;;;;;4927257;28;20094;-67
2023/03/30 09:51:00;;;;;;;11.02;1.80;;;;;;;;;;4943005;28;20058;-68
2023/03/30 09:53:49;;;;;;;;;;;;;;;;;;;;;
2023/03/30 09:56:45;;;;;;;10.27;1.77;;;;;;;;;;4923998;28;20052;-66
2023/03/30 09:59:30;;;;;;;7.38;1.75;;;;;;;;;;4965387;28;20058;-66
2023/03/30 10:06:59;;;;;;;12.40;1.60;;;;;;;;;;4864283;28;20138;-67
2023/03/30 10:09:27;;;;;;;14.55;2.28;;;;;;;;;;4917086;28;20117;-68
2023/03/30 10:11:57;;;;;;;11.90;2.15;;;;;;;;;;4952906;28;20058;-66
2023/03/30 10:14:28;;;;;;;14.27;2.42;;;;;;;;;;4930505;28;20135;-68
2023/03/30 10:16:58;;;;;;;9.65;1.73;;;;;;;;;;4921897;28;20064;-67
2023/03/30 10:19:27;;;;;;;12.32;1.98;;;;;;;;;;4876311;28;20060;-66
2023/03/30 10:22:05;;;;;;;9.57;1.77;;;;;;;;;;4951534;28;20048;-67
2023/03/30 10:24:35;;;;;;;11.20;1.92;;;;;;;;;;5000918;28;20119;-66
2023/03/30 10:30:11;;;;;;;12.73;2.05;;;;;;;;;;4985562;28;20058;-67
2023/03/30 10:32:43;;;;;;;12.20;2.10;;;;;;;;;;4889489;28;20071;-67
2023/03/30 10:35:17;;;;;;;18.13;2.67;;;;;;;;;;4957657;28;20074;-66
2023/03/30 10:37:46;;;;;;;13.88;2.63;;;;;;;;;;4888878;28;20080;-67
2023/03/30 10:40:18;;;;;;;11.55;2.15;;;;;;;;;;4992990;28;20064;-66
2023/03/30 10:42:59;;;;;;;11.07;2.00;;;;;;;;;;4906360;28;20181;-65
2023/03/30 10:48:41;;;;;;;11.55;2.30;;;;;;;;;;4870033;28;20043;-67
2023/03/30 10:51:13;;;;;;;15.13;2.53;;;;;;;;;;4911699;28;20063;-65
2023/03/30 10:53:46;;;;;;;10.07;2.13;;;;;;;;;;4883601;28;20059;-67
2023/03/30 10:56:24;;;;;;;14.05;2.55;;;;;;;;;;4866459;28;20140;-67
2023/03/30 10:59:12;;;;;;;15.10;2.30;;;;;;;;;;4879804;28;20060;-67
2023/03/30 11:01:45;;;;;;;13.05;2.20;;;;;;;;;;4928645;28;20047;-68
2023/03/30 11:04:26;;;;;;;13.90;2.22;;;;;;;;;;4949556;28;20046;-67
2023/03/30 11:10:10;;;;;;;15.98;2.50;;;;;;;;;;4903622;28;20099;-68
2023/03/30 11:12:40;;;;;;;14.32;2.15;;;;;;;;;;4962486;28;21960;-69
2023/03/30 11:15:11;;;;;;;11.60;2.15;;;;;;;;;;4984273;28;20120;-66
2023/03/30 11:17:47;;;;;;;14.77;2.30;;;;;;;;;;4981083;28;20117;-66
2023/03/30 11:20:27;;;;;;;20.95;2.80;;;;;;;;;;4984767;28;20114;-68
2023/03/30 11:23:16;;;;;;;13.05;2.80;;;;;;;;;;4971680;28;20058;-67
2023/03/30 11:25:53;;;;;;;14.80;2.38;;;;;;;;;;4943515;28;20049;-66
2023/03/30 11:31:51;;;;;;;;;;;;;;;;;;;;;
2023/03/30 11:34:27;;;;;;;17.63;2.65;;;;;;;;;;4918004;28;20056;-67
2023/03/30 11:37:02;;;;;;;12.82;1.95;;;;;;;;;;4858674;29;20052;-66
2023/03/30 11:42:30;;;;;;;14.35;2.35;;;;;;;;;;4815024;29;20120;-68
2023/03/30 11:45:18;;;;;;;13.35;1.98;;;;;;;;;;4857780;28;20391;-67
2023/03/30 11:48:04;;;;;;;8.48;1.77;;;;;;;;;;4909446;28;20051;-68
2023/03/30 11:50:39;;;;;;;13.52;1.60;;;;;;;;;;4888915;29;20295;-67
2023/03/30 11:56:30;;;;;;;10.68;1.88;;;;;;;;;;4940339;28;20110;-67
2023/03/30 11:59:03;;;;;;;11.23;1.92;;;;;;;;;;4873279;28;20150;-66
2023/03/30 12:01:49;;;;;;;12.25;1.42;;;;;;;;;;4907521;28;20073;-68
2023/03/30 12:04:23;;;;;;;12.75;2.70;;;;;;;;;;4927234;28;20058;-68
2023/03/30 12:07:00;;;;;;;13.38;2.20;;;;;;;;;;4923306;28;20086;-69
2023/03/30 12:09:36;;;;;;;14.88;1.90;;;;;;;;;;4867824;28;20140;-67
2023/03/30 12:12:14;;;;;;;12.30;1.90;;;;;;;;;;4918542;28;20069;-68
2023/03/30 12:14:55;;;;;;;15.40;1.83;;;;;;;;;;4974244;28;20046;-68
2023/03/30 12:17:32;;;;;;;11.98;1.65;;;;;;;;;;4931846;28;20055;-68
2023/03/30 12:20:12;;;;;;;16.10;1.98;;;;;;;;;;4935228;28;20055;-65
2023/03/30 12:22:57;;;;;;;;;;;;;;;;;;;;;
2023/03/30 12:25:43;;;;;;;;;;;;;;;;;;;;;
2023/03/30 12:51:52;;;;;;;9.20;1.45;;;;;;;;;;5039517;27;20425;-68
2023/03/30 12:54:39;;;;;;;12.65;2.40;;;;;;;;;;5005778;28;20053;-67
2023/03/30 12:57:12;;;;;;;11.18;2.03;;;;;;;;;;4988009;28;20068;-68
2023/03/30 13:00:11;;;;;;;11.63;1.70;;;;;;;;;;5007162;28;20053;-66
2023/03/30 13:02:49;;;;;;;17.83;2.08;;;;;;;;;;4951162;28;20066;-68
2023/03/30 13:05:33;;;;;;;15.23;2.13;;;;;;;;;;4969691;28;20049;-70
2023/03/30 13:08:04;;;;;;;13.95;2.03;;;;;;;;;;4971102;28;20135;-67
2023/03/30 13:10:38;;;;;;;11.85;1.98;;;;;;;;;;5017343;28;20207;-67
2023/03/30 13:13:05;;;;;;;17.40;2.22;;;;;;;;;;4985771;28;20490;-68
2023/03/30 13:15:42;;;;;;;11.73;2.13;;;;;;;;;;4988673;28;20054;-70
2023/03/30 13:18:41;;;;;;;17.20;2.30;;;;;;;;;;4982282;28;20131;-68
2023/03/30 13:21:17;;;;;;;11.55;1.80;;;;;;;;;;4908286;28;21177;-67
2023/03/30 13:24:04;;;;;;;12.98;1.73;;;;;;;;;;4999518;28;20058;-69
2023/03/30 13:26:46;;;;;;;16.63;1.55;;;;;;;;;;4989391;28;20053;-67
2023/03/30 13:29:17;;;;;;;7.18;1.48;;;;;;;;;;4956758;28;20070;-68
2023/03/30 13:31:57;;;;;;;13.27;1.77;;;;;;;;;;4989932;28;20132;-67
2023/03/30 13:34:31;;;;;;;11.60;1.92;;;;;;;;;;5011885;28;20049;-71
2023/03/30 13:37:00;;;;;;;12.00;1.50;;;;;;;;;;5009186;28;20102;-70
2023/03/30 13:39:33;;;;;;;7.55;1.30;;;;;;;;;;4979578;28;20056;-67
2023/03/30 13:42:09;;;;;;;11.80;1.92;;;;;;;;;;5018776;28;20061;-67
2023/03/30 13:44:54;;;;;;;9.73;1.85;;;;;;;;;;4991651;28;20054;-68
2023/03/30 13:47:29;;;;;;;9.45;1.77;;;;;;;;;;4991930;28;20133;-66
2023/03/30 13:49:59;;;;;;;8.07;1.52;;;;;;;;;;5005580;28;20065;-68
2023/03/30 13:52:28;;;;;;;16.67;1.88;;;;;;;;;;4974235;28;20053;-68
2023/03/30 13:55:12;;;;;;;10.18;1.73;;;;;;;;;;4987768;28;20119;-68
2023/03/30 13:57:48;;;;;;;13.57;1.92;;;;;;;;;;4934509;28;20146;-69
2023/03/30 14:00:27;;;;;;;12.13;1.90;;;;;;;;;;4863217;28;20126;-68
2023/03/30 14:02:55;;;;;;;9.23;1.63;;;;;;;;;;4989951;28;20053;-67
2023/03/30 14:05:23;;;;;;;12.75;1.70;;;;;;;;;;4974199;28;20056;-68
2023/03/30 14:08:07;;;;;;;11.38;1.95;;;;;;;;;;5008566;28;20120;-66
2023/03/30 14:13:25;;;;;;;;;;;;;;;;;;4986120;28;20061;-67
2023/03/30 14:15:57;;;;;;;10.13;1.20;;;;;;;;;;4967643;28;19965;-64
2023/03/30 14:21:22;;;;;;;10.48;1.80;;;;;;;;;;5025260;27;20189;-65
2023/03/30 14:23:58;;;;;;;10.13;1.73;;;;;;;;;;5029051;28;20061;-67
2023/03/30 14:26:28;;;;;;;17.10;2.22;;;;;;;;;;5044991;28;20053;-66
2023/03/30 14:29:02;;;;;;;14.88;1.83;;;;;;;;;;4953490;28;20055;-67
2023/03/30 14:31:37;;;;;;;14.43;1.70;;;;;;;;;;4917343;28;20088;-65
2023/03/30 14:34:24;;;;;;;13.27;1.60;;;;;;;;;;4884154;29;20048;-65
2023/03/30 14:37:05;;;;;;;9.43;1.40;;;;;;;;;;4858877;28;20056;-66
2023/03/30 14:42:38;;;;;;;13.13;1.73;;;;;;;;;;4915288;28;20150;-65
2023/03/30 14:45:26;;;;;;;9.75;1.90;;;;;;;;;;4929944;28;20147;-66
2023/03/30 14:48:01;;;;;;;12.18;1.60;;;;;;;;;;4955975;28;20200;-66
2023/03/30 15:04:32;;;;;;;13.00;1.87;;;;;;;;;;5039035;22;26064063;-69
2023/03/30 15:07:14;;;;;;;10.77;1.40;;;;;;;;;;5943125;24;20118;-68
2023/03/30 15:09:44;;;;;;;10.15;1.63;;;;;;;;;;5929596;23;20054;-67
2023/03/30 15:12:15;;;;;;;14.48;1.88;;;;;;;;;;5998742;23;20035;-68
2023/03/30 15:14:49;;;;;;;6.32;1.27;;;;;;;;;;6018083;23;20031;-69
2023/03/30 15:17:26;;;;;;;10.38;1.30;;;;;;;;;;6030695;23;20023;-67
2023/03/30 15:19:54;;;;;;;13.27;2.05;;;;;;;;;;5916833;23;20100;-68
2023/03/30 15:22:31;;;;;;;6.40;1.00;;;;;;;;;;6020374;23;20066;-69
2023/03/30 15:25:22;;;;;;;11.70;1.80;;;;;;;;;;5947222;23;20028;-69
2023/03/30 15:28:06;;;;;;;10.43;1.73;;;;;;;;;;5946500;23;20020;-68
2023/03/30 15:33:24;;;;;;;10.68;1.90;;;;;;;;;;5966039;23;20043;-68
2023/03/30 15:36:13;;;;;;;9.27;1.52;;;;;;;;;;6027422;23;20036;-68
2023/03/30 15:39:02;;;;;;;8.48;1.48;;;;;;;;;;5975192;23;20036;-70
2023/03/30 15:44:36;;;;;;;9.48;1.70;;;;;;;;;;5909811;23;20035;-68
2023/03/30 15:47:11;;;;;;;10.32;2.03;;;;;;;;;;5937109;23;20034;-69
2023/03/30 15:49:53;;;;;;;12.38;1.80;;;;;;;;;;5956407;23;20056;-70
2023/03/30 15:52:23;;;;;;;7.72;1.55;;;;;;;;;;6012600;23;20073;-68
2023/03/30 15:55:07;;;;;;;8.07;1.80;;;;;;;;;;6047633;23;20034;-70
2023/03/30 15:57:43;;;;;;;7.85;1.42;;;;;;;;;;5993635;23;20095;-69
2023/03/30 16:00:15;;;;;;;4.68;1.27;;;;;;;;;;5981522;23;20033;-69
2023/03/30 16:02:46;;;;;;;9.93;1.70;;;;;;;;;;5956628;23;20031;-69
2023/03/30 16:05:30;;;;;;;13.45;1.60;;;;;;;;;;5953382;23;20881;-70
2023/03/30 16:08:01;;;;;;;9.15;1.50;;;;;;;;;;5970518;23;20039;-69
2023/03/30 16:12:58;;;;;;;9.97;1.83;;;;;;;;;;5863522;24;20061;-70
2023/03/30 16:15:30;;;;;;;12.25;1.98;;;;;;;;;;5985822;23;20212;-67
2023/03/30 16:17:59;;;;;;;7.00;1.48;;;;;;;;;;6078196;23;20101;-70
2023/03/30 16:20:36;;;;;;;;;;;;;;;;;;;;;
2023/03/30 16:23:07;;;;;;;8.55;1.85;;;;;;;;;;5981693;23;20035;-71
2023/03/30 16:25:56;;;;;;;7.38;1.30;;;;;;;;;;5990460;23;20030;-70
2023/03/30 16:28:31;;;;;;;8.90;1.70;;;;;;;;;;5977008;23;20031;-67
2023/03/30 16:31:15;;;;;;;7.05;1.27;;;;;;;;;;5935571;23;20034;-68
2023/03/30 16:33:49;;;;;;;6.22;1.45;;;;;;;;;;5997400;23;20103;-69
2023/03/30 16:36:34;;;;;;;6.25;1.13;;;;;;;;;;6007920;23;20027;-71
2023/03/30 16:39:16;;;;;;;10.80;1.83;;;;;;;;;;5912245;23;20152;-68
2023/03/30 16:41:44;;;;;;;10.52;1.50;;;;;;;;;;5907478;23;20031;-67
2023/03/30 16:44:19;;;;;;;8.40;1.67;;;;;;;;;;5958601;23;20065;-72
2023/03/30 16:46:58;;;;;;;9.27;1.50;;;;;;;;;;5982374;23;20027;-73
2023/03/30 16:49:30;;;;;;;7.40;1.42;;;;;;;;;;5971032;23;20067;-70
2023/03/30 16:52:01;;;;;;;22.02;12.05;;;;;;;;;;5906115;23;20032;-70
2023/03/30 16:54:36;;;;;;;24.83;11.98;;;;;;;;;;5892043;23;20032;-69
2023/03/30 16:59:40;;;;;;;20.35;8.32;;;;;;;;;;5895432;23;20045;-70
2023/03/30 17:02:12;;;;;;;19.75;7.05;;;;;;;;;;5922189;23;20039;-69
2023/03/30 17:04:49;;;;;;;20.48;7.88;;;;;;;;;;6017305;23;20045;-71
2023/03/30 17:07:15;;;;;;;14.43;6.03;;;;;;;;;;5999914;23;20088;-69
2023/03/30 17:09:49;;;;;;;16.20;5.70;;;;;;;;;;5983204;23;20032;-69
2023/03/30 17:12:25;;;;;;;15.27;4.97;;;;;;;;;;5947361;23;20034;-71
2023/03/30 17:15:05;;;;;;;14.68;4.53;;;;;;;;;;6010103;23;20026;-70
2023/03/30 17:17:35;;;;;;;10.23;3.85;;;;;;;;;;6082994;23;20121;-71
2023/03/30 17:20:14;;;;;;;18.38;4.80;;;;;;;;;;5981839;23;20050;-68
2023/03/30 17:22:49;;;;;;;12.63;3.45;;;;;;;;;;5901074;23;20033;-68